sensor_id;sensor_type;location;lat;lon;timestamp;pressure;altitude;pressure_sealevel;temperature;humidity
72636;BME280;60679;48.888;15.544;2023-11-19T00:00:26;96532.16;;;0.25;71.75
72636;BME280;60679;48.888;15.544;2023-11-19T00:02:52;96537.28;;;0.26;71.58
72636;BME280;60679;48.888;15.544;2023-11-19T00:05:18;96530.31;;;0.25;71.72
72636;BME280;60679;48.888;15.544;2023-11-19T00:07:43;96529.31;;;0.26;71.65
72636;BME280;60679;48.888;15.544;2023-11-19T00:10:14;96521.34;;;0.26;71.66
72636;BME280;60679;48.888;15.544;2023-11-19T00:12:45;96519.38;;;0.28;71.73
72636;BME280;60679;48.888;15.544;2023-11-19T00:15:11;96523.56;;;0.31;71.73
72636;BME280;60679;48.888;15.544;2023-11-19T00:17:38;96523.56;;;0.31;71.70
72636;BME280;60679;48.888;15.544;2023-11-19T00:20:09;96522.72;;;0.30;71.80
72636;BME280;60679;48.888;15.544;2023-11-19T00:22:35;96522.41;;;0.33;71.69
72636;BME280;60679;48.888;15.544;2023-11-19T00:25:01;96516.94;;;0.35;71.70
72636;BME280;60679;48.888;15.544;2023-11-19T00:27:27;96519.28;;;0.38;71.51
72636;BME280;60679;48.888;15.544;2023-11-19T00:29:52;96519.97;;;0.40;71.80
72636;BME280;60679;48.888;15.544;2023-11-19T00:32:18;96527.78;;;0.41;71.66
72636;BME280;60679;48.888;15.544;2023-11-19T00:34:46;96530.13;;;0.44;71.57
72636;BME280;60679;48.888;15.544;2023-11-19T00:37:13;96525.50;;;0.46;71.62
72636;BME280;60679;48.888;15.544;2023-11-19T00:39:40;96516.53;;;0.47;71.68
72636;BME280;60679;48.888;15.544;2023-11-19T00:42:05;96522.69;;;0.48;71.64
72636;BME280;60679;48.888;15.544;2023-11-19T00:44:31;96516.53;;;0.47;71.62
72636;BME280;60679;48.888;15.544;2023-11-19T00:46:56;96514.72;;;0.48;71.76
72636;BME280;60679;48.888;15.544;2023-11-19T00:49:22;96498.09;;;0.46;71.62
72636;BME280;60679;48.888;15.544;2023-11-19T00:51:47;96502.44;;;0.47;71.69
72636;BME280;60679;48.888;15.544;2023-11-19T00:54:14;96497.13;;;0.47;71.61
72636;BME280;60679;48.888;15.544;2023-11-19T00:56:39;96491.13;;;0.45;71.84
72636;BME280;60679;48.888;15.544;2023-11-19T00:59:05;96491.28;;;0.43;71.37
72636;BME280;60679;48.888;15.544;2023-11-19T01:01:30;96484.47;;;0.41;71.54
72636;BME280;60679;48.888;15.544;2023-11-19T01:03:56;96478.31;;;0.40;71.73
72636;BME280;60679;48.888;15.544;2023-11-19T01:06:32;96467.84;;;0.39;71.68
72636;BME280;60679;48.888;15.544;2023-11-19T01:08:58;96477.63;;;0.38;71.80
72636;BME280;60679;48.888;15.544;2023-11-19T01:11:24;96466.34;;;0.36;71.63
72636;BME280;60679;48.888;15.544;2023-11-19T01:13:51;96464.00;;;0.33;71.62
72636;BME280;60679;48.888;15.544;2023-11-19T01:16:17;96466.13;;;0.30;71.78
72636;BME280;60679;48.888;15.544;2023-11-19T01:18:44;96461.78;;;0.29;71.63
72636;BME280;60679;48.888;15.544;2023-11-19T01:21:09;96448.69;;;0.27;71.82
72636;BME280;60679;48.888;15.544;2023-11-19T01:23:35;96452.31;;;0.26;71.62
72636;BME280;60679;48.888;15.544;2023-11-19T01:26:03;96441.69;;;0.26;71.75
72636;BME280;60679;48.888;15.544;2023-11-19T01:28:30;96433.06;;;0.24;71.80
72636;BME280;60679;48.888;15.544;2023-11-19T01:30:56;96415.63;;;0.22;71.71
72636;BME280;60679;48.888;15.544;2023-11-19T01:33:21;96410.63;;;0.19;71.98
72636;BME280;60679;48.888;15.544;2023-11-19T01:35:50;96405.63;;;0.16;71.78
72636;BME280;60679;48.888;15.544;2023-11-19T01:38:15;96398.81;;;0.13;71.63
72636;BME280;60679;48.888;15.544;2023-11-19T01:40:41;96406.13;;;0.11;71.84
72636;BME280;60679;48.888;15.544;2023-11-19T01:43:06;96395.31;;;0.13;71.88
72636;BME280;60679;48.888;15.544;2023-11-19T01:45:33;96389.34;;;0.11;71.91
72636;BME280;60679;48.888;15.544;2023-11-19T01:48:00;96378.72;;;0.11;71.64
72636;BME280;60679;48.888;15.544;2023-11-19T01:50:30;96376.91;;;0.11;72.01
72636;BME280;60679;48.888;15.544;2023-11-19T01:52:56;96372.41;;;0.12;72.01
72636;BME280;60679;48.888;15.544;2023-11-19T01:55:27;96375.91;;;0.12;72.01
72636;BME280;60679;48.888;15.544;2023-11-19T01:57:59;96365.28;;;0.12;72.05
72636;BME280;60679;48.888;15.544;2023-11-19T02:00:28;96350.19;;;0.13;72.12
72636;BME280;60679;48.888;15.544;2023-11-19T02:02:53;96350.38;;;0.11;72.04
72636;BME280;60679;48.888;15.544;2023-11-19T02:05:19;96344.38;;;0.09;72.06
72636;BME280;60679;48.888;15.544;2023-11-19T02:07:46;96349.84;;;0.08;72.02
72636;BME280;60679;48.888;15.544;2023-11-19T02:10:12;96360.47;;;0.08;72.10
72636;BME280;60679;48.888;15.544;2023-11-19T02:12:42;96363.97;;;0.08;72.12
72636;BME280;60679;48.888;15.544;2023-11-19T02:15:09;96361.31;;;0.08;72.35
72636;BME280;60679;48.888;15.544;2023-11-19T02:17:35;96342.56;;;0.10;72.08
72636;BME280;60679;48.888;15.544;2023-11-19T02:20:03;96347.56;;;0.13;72.24
72636;BME280;60679;48.888;15.544;2023-11-19T02:22:31;96357.19;;;0.14;72.18
72636;BME280;60679;48.888;15.544;2023-11-19T02:25:00;96348.22;;;0.15;72.22
72636;BME280;60679;48.888;15.544;2023-11-19T02:27:54;96336.63;;;0.16;72.20
72636;BME280;60679;48.888;15.544;2023-11-19T02:30:24;96325.03;;;0.17;71.99
72636;BME280;60679;48.888;15.544;2023-11-19T02:32:55;96302.25;;;0.14;72.09
72636;BME280;60679;48.888;15.544;2023-11-19T02:35:23;96296.28;;;0.12;72.21
72636;BME280;60679;48.888;15.544;2023-11-19T02:37:49;96299.94;;;0.11;72.27
72636;BME280;60679;48.888;15.544;2023-11-19T02:40:14;96308.03;;;0.10;72.27
72636;BME280;60679;48.888;15.544;2023-11-19T02:42:40;96299.41;;;0.08;72.16
72636;BME280;60679;48.888;15.544;2023-11-19T02:45:06;96296.09;;;0.06;72.32
72636;BME280;60679;48.888;15.544;2023-11-19T02:47:35;96304.19;;;0.04;72.60
72636;BME280;60679;48.888;15.544;2023-11-19T02:50:01;96297.09;;;0.05;72.24
72636;BME280;60679;48.888;15.544;2023-11-19T02:52:27;96290.78;;;0.06;72.43
72636;BME280;60679;48.888;15.544;2023-11-19T02:54:55;96276.69;;;0.05;72.38
72636;BME280;60679;48.888;15.544;2023-11-19T02:57:21;96274.88;;;0.06;72.29
72636;BME280;60679;48.888;15.544;2023-11-19T02:59:46;96278.31;;;0.06;72.54
72636;BME280;60679;48.888;15.544;2023-11-19T03:02:11;96262.41;;;0.06;72.54
72636;BME280;60679;48.888;15.544;2023-11-19T03:04:38;96257.09;;;0.06;72.74
72636;BME280;60679;48.888;15.544;2023-11-19T03:07:10;96243.03;;;0.06;72.43
72636;BME280;60679;48.888;15.544;2023-11-19T03:09:36;96237.72;;;0.06;72.56
72636;BME280;60679;48.888;15.544;2023-11-19T03:12:02;96223.44;;;0.07;72.48
72636;BME280;60679;48.888;15.544;2023-11-19T03:14:27;96201.53;;;0.05;72.52
72636;BME280;60679;48.888;15.544;2023-11-19T03:16:55;96228.41;;;0.02;72.34
72636;BME280;60679;48.888;15.544;2023-11-19T03:19:21;96258.56;;;0.00;72.57
72636;BME280;60679;48.888;15.544;2023-11-19T03:21:47;96253.25;;;0.00;72.65
72636;BME280;60679;48.888;15.544;2023-11-19T03:24:13;96250.59;;;0.00;72.60
72636;BME280;60679;48.888;15.544;2023-11-19T03:26:39;96237.34;;;0.00;72.56
72636;BME280;60679;48.888;15.544;2023-11-19T03:29:05;96235.69;;;-0.01;72.70
72636;BME280;60679;48.888;15.544;2023-11-19T03:31:30;96249.94;;;-0.02;72.62
72636;BME280;60679;48.888;15.544;2023-11-19T03:33:56;96246.31;;;-0.01;72.48
72636;BME280;60679;48.888;15.544;2023-11-19T03:36:22;96245.28;;;0.00;72.64
72636;BME280;60679;48.888;15.544;2023-11-19T03:38:47;96254.94;;;0.02;72.75
72636;BME280;60679;48.888;15.544;2023-11-19T03:41:14;96247.16;;;0.00;72.81
72636;BME280;60679;48.888;15.544;2023-11-19T03:43:40;96247.94;;;0.00;72.72
72636;BME280;60679;48.888;15.544;2023-11-19T03:46:26;96244.00;;;0.05;72.85
72636;BME280;60679;48.888;15.544;2023-11-19T03:48:52;96240.19;;;0.07;72.66
72636;BME280;60679;48.888;15.544;2023-11-19T03:51:17;96236.56;;;0.08;72.61
72636;BME280;60679;48.888;15.544;2023-11-19T03:53:44;96238.38;;;0.08;72.89
72636;BME280;60679;48.888;15.544;2023-11-19T03:56:10;96234.56;;;0.10;72.87
72636;BME280;60679;48.888;15.544;2023-11-19T03:58:36;96225.63;;;0.11;73.10
72636;BME280;60679;48.888;15.544;2023-11-19T04:01:03;96226.59;;;0.10;72.67
72636;BME280;60679;48.888;15.544;2023-11-19T04:03:35;96223.78;;;0.12;72.79
72636;BME280;60679;48.888;15.544;2023-11-19T04:06:00;96206.34;;;0.09;72.57
72636;BME280;60679;48.888;15.544;2023-11-19T04:08:26;96204.72;;;0.08;72.67
72636;BME280;60679;48.888;15.544;2023-11-19T04:10:54;96203.56;;;0.11;72.99
72636;BME280;60679;48.888;15.544;2023-11-19T04:13:20;96204.38;;;0.11;72.67
72636;BME280;60679;48.888;15.544;2023-11-19T04:15:49;96199.06;;;0.11;72.55
72636;BME280;60679;48.888;15.544;2023-11-19T04:18:15;96183.97;;;0.12;72.86
72636;BME280;60679;48.888;15.544;2023-11-19T04:20:41;96176.00;;;0.12;72.71
72636;BME280;60679;48.888;15.544;2023-11-19T04:23:08;96170.53;;;0.13;72.83
72636;BME280;60679;48.888;15.544;2023-11-19T04:25:35;96166.88;;;0.14;72.86
72636;BME280;60679;48.888;15.544;2023-11-19T04:28:00;96161.56;;;0.14;72.79
72636;BME280;60679;48.888;15.544;2023-11-19T04:30:29;96147.50;;;0.14;72.74
72636;BME280;60679;48.888;15.544;2023-11-19T04:32:57;96147.50;;;0.14;72.75
72636;BME280;60679;48.888;15.544;2023-11-19T04:35:22;96145.81;;;0.13;73.01
72636;BME280;60679;48.888;15.544;2023-11-19T04:37:48;96148.47;;;0.13;72.86
72636;BME280;60679;48.888;15.544;2023-11-19T04:40:14;96147.63;;;0.12;72.79
72636;BME280;60679;48.888;15.544;2023-11-19T04:42:39;96149.31;;;0.13;72.81
72636;BME280;60679;48.888;15.544;2023-11-19T04:45:09;96147.31;;;0.15;73.14
72636;BME280;60679;48.888;15.544;2023-11-19T04:47:37;96146.16;;;0.18;72.83
72636;BME280;60679;48.888;15.544;2023-11-19T04:50:02;96150.47;;;0.19;73.02
72636;BME280;60679;48.888;15.544;2023-11-19T04:52:28;96142.34;;;0.20;73.10
72636;BME280;60679;48.888;15.544;2023-11-19T04:54:54;96142.84;;;0.24;72.99
72636;BME280;60679;48.888;15.544;2023-11-19T04:57:19;96141.03;;;0.24;72.84
72636;BME280;60679;48.888;15.544;2023-11-19T04:59:45;96139.69;;;0.28;72.94
72636;BME280;60679;48.888;15.544;2023-11-19T05:02:11;96149.34;;;0.29;72.66
72636;BME280;60679;48.888;15.544;2023-11-19T05:04:36;96137.72;;;0.30;72.79
72636;BME280;60679;48.888;15.544;2023-11-19T05:07:03;96127.75;;;0.32;72.74
72636;BME280;60679;48.888;15.544;2023-11-19T05:09:29;96125.09;;;0.32;72.79
72636;BME280;60679;48.888;15.544;2023-11-19T05:11:55;96117.16;;;0.32;72.94
72636;BME280;60679;48.888;15.544;2023-11-19T05:14:21;96121.63;;;0.32;72.90
72636;BME280;60679;48.888;15.544;2023-11-19T05:16:48;96116.31;;;0.32;73.03
72636;BME280;60679;48.888;15.544;2023-11-19T05:19:14;96108.84;;;0.27;73.00
72636;BME280;60679;48.888;15.544;2023-11-19T05:21:42;96106.19;;;0.27;72.94
72636;BME280;60679;48.888;15.544;2023-11-19T05:24:10;96102.03;;;0.25;73.03
72636;BME280;60679;48.888;15.544;2023-11-19T05:26:38;96090.75;;;0.23;72.92
72636;BME280;60679;48.888;15.544;2023-11-19T05:29:03;96093.25;;;0.24;72.92
72636;BME280;60679;48.888;15.544;2023-11-19T05:31:30;96089.59;;;0.25;72.90
72636;BME280;60679;48.888;15.544;2023-11-19T05:33:55;96081.66;;;0.25;73.02
72636;BME280;60679;48.888;15.544;2023-11-19T05:36:21;96087.59;;;0.27;72.92
72636;BME280;60679;48.888;15.544;2023-11-19T05:38:53;96084.31;;;0.25;73.08
72636;BME280;60679;48.888;15.544;2023-11-19T05:41:19;96084.94;;;0.27;72.92
72636;BME280;60679;48.888;15.544;2023-11-19T05:43:44;96083.13;;;0.28;72.86
72636;BME280;60679;48.888;15.544;2023-11-19T05:46:10;96083.78;;;0.30;72.96
72636;BME280;60679;48.888;15.544;2023-11-19T05:48:35;96074.34;;;0.27;72.80
72636;BME280;60679;48.888;15.544;2023-11-19T05:51:02;96068.19;;;0.27;72.87
72636;BME280;60679;48.888;15.544;2023-11-19T05:53:28;96060.41;;;0.25;72.91
72636;BME280;60679;48.888;15.544;2023-11-19T05:55:53;96062.56;;;0.22;73.26
72636;BME280;60679;48.888;15.544;2023-11-19T05:58:26;96054.41;;;0.23;72.99
72636;BME280;60679;48.888;15.544;2023-11-19T06:00:52;96050.25;;;0.21;73.16
72636;BME280;60679;48.888;15.544;2023-11-19T06:03:18;96050.13;;;0.22;73.03
72636;BME280;60679;48.888;15.544;2023-11-19T06:05:47;96052.78;;;0.22;73.09
72636;BME280;60679;48.888;15.544;2023-11-19T06:08:13;96050.13;;;0.22;72.96
72636;BME280;60679;48.888;15.544;2023-11-19T06:10:43;96040.31;;;0.23;73.18
72636;BME280;60679;48.888;15.544;2023-11-19T06:13:11;96031.69;;;0.21;73.05
72636;BME280;60679;48.888;15.544;2023-11-19T06:15:37;96023.56;;;0.22;72.83
72636;BME280;60679;48.888;15.544;2023-11-19T06:18:03;95996.84;;;0.24;73.20
72636;BME280;60679;48.888;15.544;2023-11-19T06:20:32;96020.41;;;0.27;73.13
72636;BME280;60679;48.888;15.544;2023-11-19T06:22:59;96027.38;;;0.28;73.03
72636;BME280;60679;48.888;15.544;2023-11-19T06:25:24;96010.28;;;0.30;73.09
72636;BME280;60679;48.888;15.544;2023-11-19T06:27:50;96027.19;;;0.29;73.03
72636;BME280;60679;48.888;15.544;2023-11-19T06:30:19;96033.34;;;0.30;73.09
72636;BME280;60679;48.888;15.544;2023-11-19T06:32:46;96029.19;;;0.27;73.08
72636;BME280;60679;48.888;15.544;2023-11-19T06:35:12;96028.38;;;0.27;73.08
72636;BME280;60679;48.888;15.544;2023-11-19T06:37:40;96035.16;;;0.29;73.25
72636;BME280;60679;48.888;15.544;2023-11-19T06:40:06;96032.03;;;0.34;73.24
72636;BME280;60679;48.888;15.544;2023-11-19T06:42:32;96026.03;;;0.40;73.18
72636;BME280;60679;48.888;15.544;2023-11-19T06:44:58;96026.53;;;0.43;72.91
72636;BME280;60679;48.888;15.544;2023-11-19T06:47:27;96017.72;;;0.51;72.93
72636;BME280;60679;48.888;15.544;2023-11-19T06:49:53;96004.09;;;0.54;72.91
72636;BME280;60679;48.888;15.544;2023-11-19T06:52:19;95994.97;;;0.56;72.72
72636;BME280;60679;48.888;15.544;2023-11-19T06:54:44;95991.16;;;0.59;72.88
72636;BME280;60679;48.888;15.544;2023-11-19T06:57:11;95988.00;;;0.64;72.81
72636;BME280;60679;48.888;15.544;2023-11-19T06:59:37;95992.63;;;0.70;72.57
72636;BME280;60679;48.888;15.544;2023-11-19T07:02:03;95979.13;;;0.79;72.51
72636;BME280;60679;48.888;15.544;2023-11-19T07:04:30;95977.28;;;0.88;72.73
72636;BME280;60679;48.888;15.544;2023-11-19T07:06:56;95971.13;;;0.95;72.40
72636;BME280;60679;48.888;15.544;2023-11-19T07:09:21;95980.25;;;1.01;72.36
72636;BME280;60679;48.888;15.544;2023-11-19T07:11:49;95977.06;;;1.05;72.26
72636;BME280;60679;48.888;15.544;2023-11-19T07:14:18;95975.88;;;1.08;72.15
72636;BME280;60679;48.888;15.544;2023-11-19T07:16:44;95976.56;;;1.10;72.25
72636;BME280;60679;48.888;15.544;2023-11-19T07:19:09;95979.00;;;1.20;72.13
72636;BME280;60679;48.888;15.544;2023-11-19T07:21:35;95980.44;;;1.30;72.16
72636;BME280;60679;48.888;15.544;2023-11-19T07:24:05;95979.38;;;1.39;71.90
72636;BME280;60679;48.888;15.544;2023-11-19T07:26:31;95977.53;;;1.48;71.93
72636;BME280;60679;48.888;15.544;2023-11-19T07:28:56;95967.66;;;1.56;71.87
72636;BME280;60679;48.888;15.544;2023-11-19T07:31:22;95958.78;;;1.64;71.62
72636;BME280;60679;48.888;15.544;2023-11-19T07:33:49;95944.06;;;1.76;71.26
72636;BME280;60679;48.888;15.544;2023-11-19T07:36:14;95957.31;;;1.84;71.33
72636;BME280;60679;48.888;15.544;2023-11-19T07:38:40;95956.44;;;1.92;71.35
72636;BME280;60679;48.888;15.544;2023-11-19T07:41:06;95966.56;;;1.96;71.21
72636;BME280;60679;48.888;15.544;2023-11-19T07:43:32;95958.13;;;2.07;71.03
72636;BME280;60679;48.888;15.544;2023-11-19T07:45:58;95946.59;;;2.15;71.12
72636;BME280;60679;48.888;15.544;2023-11-19T07:48:29;95953.38;;;2.17;70.97
72636;BME280;60679;48.888;15.544;2023-11-19T07:50:55;95955.06;;;2.18;71.10
72636;BME280;60679;48.888;15.544;2023-11-19T07:53:20;95955.41;;;2.15;71.05
72636;BME280;60679;48.888;15.544;2023-11-19T07:55:46;95962.91;;;2.12;71.17
72636;BME280;60679;48.888;15.544;2023-11-19T07:58:12;95971.94;;;2.11;71.37
72636;BME280;60679;48.888;15.544;2023-11-19T08:00:37;95974.94;;;2.08;71.20
72636;BME280;60679;48.888;15.544;2023-11-19T08:03:04;95973.56;;;2.12;71.28
72636;BME280;60679;48.888;15.544;2023-11-19T08:05:31;95973.41;;;2.13;71.14
72636;BME280;60679;48.888;15.544;2023-11-19T08:07:56;95970.19;;;2.18;70.97
72636;BME280;60679;48.888;15.544;2023-11-19T08:10:23;95989.16;;;2.23;71.04
72636;BME280;60679;48.888;15.544;2023-11-19T08:12:48;95989.59;;;2.26;71.21
72636;BME280;60679;48.888;15.544;2023-11-19T08:15:14;96002.41;;;2.31;71.00
72636;BME280;60679;48.888;15.544;2023-11-19T08:17:42;96000.84;;;2.37;70.79
72636;BME280;60679;48.888;15.544;2023-11-19T08:20:10;96002.25;;;2.47;70.68
72636;BME280;60679;48.888;15.544;2023-11-19T08:22:37;95992.50;;;2.54;70.49
72636;BME280;60679;48.888;15.544;2023-11-19T08:25:06;95986.84;;;2.72;70.37
72636;BME280;60679;48.888;15.544;2023-11-19T08:27:32;96007.72;;;2.83;70.15
72636;BME280;60679;48.888;15.544;2023-11-19T08:29:58;95993.66;;;2.89;70.23
72636;BME280;60679;48.888;15.544;2023-11-19T08:32:27;95979.97;;;2.92;69.97
72636;BME280;60679;48.888;15.544;2023-11-19T08:34:53;95972.59;;;2.94;69.92
72636;BME280;60679;48.888;15.544;2023-11-19T08:37:19;95967.47;;;2.92;69.73
72636;BME280;60679;48.888;15.544;2023-11-19T08:39:50;95958.84;;;2.90;70.01
72636;BME280;60679;48.888;15.544;2023-11-19T08:42:19;95958.84;;;2.90;69.72
72636;BME280;60679;48.888;15.544;2023-11-19T08:44:49;95945.09;;;2.93;69.86
72636;BME280;60679;48.888;15.544;2023-11-19T08:47:16;95940.91;;;2.99;69.79
72636;BME280;60679;48.888;15.544;2023-11-19T08:49:43;95946.56;;;3.11;69.45
72636;BME280;60679;48.888;15.544;2023-11-19T08:52:09;95946.66;;;3.17;69.54
72636;BME280;60679;48.888;15.544;2023-11-19T08:54:36;95934.88;;;3.26;69.45
72636;BME280;60679;48.888;15.544;2023-11-19T08:57:03;95950.88;;;3.26;69.38
72636;BME280;60679;48.888;15.544;2023-11-19T08:59:29;95953.47;;;3.20;69.34
72636;BME280;60679;48.888;15.544;2023-11-19T09:01:55;95955.91;;;3.36;69.12
72636;BME280;60679;48.888;15.544;2023-11-19T09:04:21;95958.66;;;3.42;69.24
72636;BME280;60679;48.888;15.544;2023-11-19T09:06:49;95961.59;;;3.47;69.32
72636;BME280;60679;48.888;15.544;2023-11-19T09:09:15;95963.91;;;3.50;69.12
72636;BME280;60679;48.888;15.544;2023-11-19T09:11:41;95964.81;;;3.58;69.19
72636;BME280;60679;48.888;15.544;2023-11-19T09:14:07;95961.41;;;3.64;69.17
72636;BME280;60679;48.888;15.544;2023-11-19T09:16:33;95949.56;;;3.73;69.12
72636;BME280;60679;48.888;15.544;2023-11-19T09:19:02;95944.31;;;3.79;68.94
72636;BME280;60679;48.888;15.544;2023-11-19T09:21:31;95943.75;;;3.84;69.11
72636;BME280;60679;48.888;15.544;2023-11-19T09:23:59;95936.03;;;3.95;68.77
72636;BME280;60679;48.888;15.544;2023-11-19T09:26:27;95922.47;;;4.18;68.13
72636;BME280;60679;48.888;15.544;2023-11-19T09:28:52;95922.09;;;4.49;67.64
72636;BME280;60679;48.888;15.544;2023-11-19T09:31:18;95916.72;;;4.70;67.40
72636;BME280;60679;48.888;15.544;2023-11-19T09:33:44;95914.97;;;4.90;67.31
72636;BME280;60679;48.888;15.544;2023-11-19T09:36:15;95915.78;;;5.32;66.49
72636;BME280;60679;48.888;15.544;2023-11-19T09:38:43;95910.97;;;5.68;66.16
72636;BME280;60679;48.888;15.544;2023-11-19T09:41:09;95899.63;;;5.53;66.84
72636;BME280;60679;48.888;15.544;2023-11-19T09:43:38;95909.59;;;5.24;67.54
72636;BME280;60679;48.888;15.544;2023-11-19T09:46:11;95902.66;;;4.96;67.91
72636;BME280;60679;48.888;15.544;2023-11-19T09:48:38;95903.63;;;4.82;67.94
72636;BME280;60679;48.888;15.544;2023-11-19T09:51:08;95904.50;;;4.95;67.45
72636;BME280;60679;48.888;15.544;2023-11-19T09:53:34;95901.31;;;5.19;67.33
72636;BME280;60679;48.888;15.544;2023-11-19T09:56:02;95896.34;;;5.64;66.19
72636;BME280;60679;48.888;15.544;2023-11-19T09:58:29;95894.50;;;5.71;66.13
72636;BME280;60679;48.888;15.544;2023-11-19T10:00:55;95898.72;;;5.39;66.91
72636;BME280;60679;48.888;15.544;2023-11-19T10:03:23;95889.13;;;5.04;67.56
72636;BME280;60679;48.888;15.544;2023-11-19T10:05:49;95891.03;;;4.76;67.82
72636;BME280;60679;48.888;15.544;2023-11-19T10:08:15;95884.97;;;4.60;68.23
72636;BME280;60679;48.888;15.544;2023-11-19T10:10:42;95886.38;;;4.56;68.42
72636;BME280;60679;48.888;15.544;2023-11-19T10:13:08;95878.66;;;4.68;68.35
72636;BME280;60679;48.888;15.544;2023-11-19T10:15:36;95869.50;;;4.90;67.91
72636;BME280;60679;48.888;15.544;2023-11-19T10:18:04;95869.81;;;5.15;67.53
72636;BME280;60679;48.888;15.544;2023-11-19T10:20:40;95864.19;;;5.70;66.70
72636;BME280;60679;48.888;15.544;2023-11-19T10:23:06;95854.06;;;6.90;64.41
72636;BME280;60679;48.888;15.544;2023-11-19T10:28:39;95858.03;;;10.26;61.37
72636;BME280;60679;48.888;15.544;2023-11-19T10:31:07;95851.44;;;11.66;59.66
72636;BME280;60679;48.888;15.544;2023-11-19T10:33:33;95841.69;;;11.77;59.77
72636;BME280;60679;48.888;15.544;2023-11-19T10:35:58;95828.75;;;11.67;59.75
72636;BME280;60679;48.888;15.544;2023-11-19T10:38:25;95818.84;;;11.84;59.30
72636;BME280;60679;48.888;15.544;2023-11-19T10:40:52;95814.56;;;12.66;57.70
72636;BME280;60679;48.888;15.544;2023-11-19T10:43:21;95818.50;;;11.41;60.02
72636;BME280;60679;48.888;15.544;2023-11-19T10:45:49;95815.31;;;10.34;61.49
72636;BME280;60679;48.888;15.544;2023-11-19T10:48:14;95801.00;;;9.51;62.43
72636;BME280;60679;48.888;15.544;2023-11-19T10:50:42;95807.97;;;8.93;63.49
72636;BME280;60679;48.888;15.544;2023-11-19T10:53:10;95807.47;;;8.41;64.03
72636;BME280;60679;48.888;15.544;2023-11-19T10:55:38;95806.78;;;8.70;63.00
72636;BME280;60679;48.888;15.544;2023-11-19T10:58:06;95817.22;;;9.33;61.69
72636;BME280;60679;48.888;15.544;2023-11-19T11:00:44;95819.34;;;10.55;60.15
72636;BME280;60679;48.888;15.544;2023-11-19T11:03:20;95805.41;;;9.64;63.14
72636;BME280;60679;48.888;15.544;2023-11-19T11:05:48;95823.84;;;8.83;64.37
72636;BME280;60679;48.888;15.544;2023-11-19T11:08:14;95820.00;;;8.29;64.93
72636;BME280;60679;48.888;15.544;2023-11-19T11:10:44;95819.13;;;7.79;65.49
72636;BME280;60679;48.888;15.544;2023-11-19T11:13:10;95811.59;;;7.63;65.80
72636;BME280;60679;48.888;15.544;2023-11-19T11:15:37;95804.47;;;8.31;64.39
72636;BME280;60679;48.888;15.544;2023-11-19T11:18:06;95792.47;;;9.06;63.37
72636;BME280;60679;48.888;15.544;2023-11-19T11:20:33;95792.47;;;9.06;63.84
72636;BME280;60679;48.888;15.544;2023-11-19T11:25:47;95771.91;;;9.42;63.37
72636;BME280;60679;48.888;15.544;2023-11-19T11:28:38;95763.06;;;10.75;61.59
72636;BME280;60679;48.888;15.544;2023-11-19T11:34:08;95765.56;;;9.77;64.09
72636;BME280;60679;48.888;15.544;2023-11-19T11:39:42;95778.84;;;8.29;66.39
72636;BME280;60679;48.888;15.544;2023-11-19T11:45:05;95803.34;;;7.89;67.89
72636;BME280;60679;48.888;15.544;2023-11-19T11:50:18;95792.47;;;8.02;68.09
72636;BME280;60679;48.888;15.544;2023-11-19T11:55:24;95800.25;;;8.10;68.11
72636;BME280;60679;48.888;15.544;2023-11-19T11:57:50;95788.97;;;8.88;66.61
72636;BME280;60679;48.888;15.544;2023-11-19T12:00:22;95781.19;;;9.16;66.13
72636;BME280;60679;48.888;15.544;2023-11-19T12:02:51;95782.91;;;9.40;65.89
72636;BME280;60679;48.888;15.544;2023-11-19T12:05:17;95772.31;;;9.57;65.59
72636;BME280;60679;48.888;15.544;2023-11-19T12:07:58;95772.22;;;9.63;65.89
72636;BME280;60679;48.888;15.544;2023-11-19T12:10:25;95777.44;;;9.47;66.34
72636;BME280;60679;48.888;15.544;2023-11-19T12:12:58;95790.59;;;9.07;67.24
72636;BME280;60679;48.888;15.544;2023-11-19T12:15:23;95795.78;;;8.72;68.04
72636;BME280;60679;48.888;15.544;2023-11-19T12:17:52;95796.78;;;8.53;68.59
72636;BME280;60679;48.888;15.544;2023-11-19T12:20:19;95787.00;;;8.40;68.67
72636;BME280;60679;48.888;15.544;2023-11-19T12:22:46;95785.88;;;8.30;68.96
72636;BME280;60679;48.888;15.544;2023-11-19T12:25:13;95788.00;;;8.21;69.21
72636;BME280;60679;48.888;15.544;2023-11-19T12:27:43;95779.25;;;8.26;69.15
72636;BME280;60679;48.888;15.544;2023-11-19T12:30:09;95769.25;;;8.33;69.23
72636;BME280;60679;48.888;15.544;2023-11-19T12:32:42;95773.03;;;8.32;69.08
72636;BME280;60679;48.888;15.544;2023-11-19T12:35:09;95774.31;;;8.23;69.52
72636;BME280;60679;48.888;15.544;2023-11-19T12:37:41;95773.47;;;8.22;69.49
72636;BME280;60679;48.888;15.544;2023-11-19T12:40:27;95770.47;;;8.37;69.38
72636;BME280;60679;48.888;15.544;2023-11-19T12:42:55;95765.28;;;8.60;69.03
72636;BME280;60679;48.888;15.544;2023-11-19T12:45:20;95762.72;;;9.01;68.38
72636;BME280;60679;48.888;15.544;2023-11-19T12:47:48;95757.22;;;9.56;67.29
72636;BME280;60679;48.888;15.544;2023-11-19T12:50:15;95763.84;;;9.83;66.91
72636;BME280;60679;48.888;15.544;2023-11-19T12:52:42;95757.00;;;10.33;66.09
72636;BME280;60679;48.888;15.544;2023-11-19T12:55:25;95748.91;;;10.45;66.03
72636;BME280;60679;48.888;15.544;2023-11-19T12:57:54;95746.66;;;10.54;65.63
72636;BME280;60679;48.888;15.544;2023-11-19T13:00:21;95745.50;;;10.26;66.43
72636;BME280;60679;48.888;15.544;2023-11-19T13:02:48;95753.81;;;10.25;66.35
72636;BME280;60679;48.888;15.544;2023-11-19T13:05:44;95761.91;;;10.25;66.40
72636;BME280;60679;48.888;15.544;2023-11-19T13:08:09;95764.56;;;9.90;67.41
72636;BME280;60679;48.888;15.544;2023-11-19T13:10:51;95767.22;;;9.78;67.85
72636;BME280;60679;48.888;15.544;2023-11-19T13:13:18;95769.53;;;9.63;68.25
72636;BME280;60679;48.888;15.544;2023-11-19T13:15:44;95763.91;;;9.65;68.30
72636;BME280;60679;48.888;15.544;2023-11-19T13:18:16;95761.19;;;9.53;68.51
72636;BME280;60679;48.888;15.544;2023-11-19T13:20:41;95761.84;;;9.49;68.73